sensor_id;sensor_type;location;lat;lon;timestamp;P1;durP1;ratioP1;P2;durP2;ratioP2
15043;SDS011;7619;48.562;8.910;2023-03-30T00:01:15;7.80;;;2.20;;
15043;SDS011;7619;48.562;8.910;2023-03-30T00:03:43;7.37;;;2.30;;
15043;SDS011;7619;48.562;8.910;2023-03-30T00:06:13;2.63;;;1.60;;
15043;SDS011;7619;48.562;8.910;2023-03-30T00:08:42;9.13;;;1.87;;
15043;SDS011;7619;48.562;8.910;2023-03-30T00:11:11;7.10;;;2.23;;
15043;SDS011;7619;48.562;8.910;2023-03-30T00:13:41;2.40;;;1.30;;
15043;SDS011;7619;48.562;8.910;2023-03-30T00:16:10;5.13;;;1.67;;
15043;SDS011;7619;48.562;8.910;2023-03-30T00:18:38;6.13;;;2.13;;
15043;SDS011;7619;48.562;8.910;2023-03-30T00:21:07;8.23;;;2.23;;
15043;SDS011;7619;48.562;8.910;2023-03-30T00:23:37;4.80;;;1.70;;
15043;SDS011;7619;48.562;8.910;2023-03-30T00:26:05;5.07;;;2.00;;
15043;SDS011;7619;48.562;8.910;2023-03-30T00:28:33;4.83;;;1.90;;
15043;SDS011;7619;48.562;8.910;2023-03-30T00:31:02;3.13;;;1.37;;
15043;SDS011;7619;48.562;8.910;2023-03-30T00:33:30;5.97;;;1.67;;
15043;SDS011;7619;48.562;8.910;2023-03-30T00:35:58;3.27;;;1.67;;
15043;SDS011;7619;48.562;8.910;2023-03-30T00:38:26;6.70;;;1.77;;
15043;SDS011;7619;48.562;8.910;2023-03-30T00:40:55;3.93;;;1.63;;
15043;SDS011;7619;48.562;8.910;2023-03-30T00:43:24;3.13;;;1.70;;
15043;SDS011;7619;48.562;8.910;2023-03-30T00:45:52;7.80;;;1.83;;
15043;SDS011;7619;48.562;8.910;2023-03-30T00:48:22;2.90;;;1.37;;
15043;SDS011;7619;48.562;8.910;2023-03-30T00:50:53;7.07;;;1.80;;
15043;SDS011;7619;48.562;8.910;2023-03-30T00:53:23;2.90;;;1.33;;
15043;SDS011;7619;48.562;8.910;2023-03-30T00:55:52;6.23;;;1.70;;
15043;SDS011;7619;48.562;8.910;2023-03-30T00:58:20;6.40;;;2.03;;
15043;SDS011;7619;48.562;8.910;2023-03-30T01:00:49;6.20;;;2.20;;
15043;SDS011;7619;48.562;8.910;2023-03-30T01:03:18;3.83;;;1.80;;
15043;SDS011;7619;48.562;8.910;2023-03-30T01:05:48;6.73;;;2.00;;
15043;SDS011;7619;48.562;8.910;2023-03-30T01:08:17;7.63;;;1.80;;
15043;SDS011;7619;48.562;8.910;2023-03-30T01:10:48;8.80;;;2.00;;
15043;SDS011;7619;48.562;8.910;2023-03-30T01:13:16;1.70;;;1.10;;
15043;SDS011;7619;48.562;8.910;2023-03-30T01:15:49;2.90;;;1.30;;
15043;SDS011;7619;48.562;8.910;2023-03-30T01:18:20;6.20;;;1.80;;
15043;SDS011;7619;48.562;8.910;2023-03-30T01:23:53;7.80;;;2.17;;
15043;SDS011;7619;48.562;8.910;2023-03-30T01:29:28;8.53;;;2.00;;
15043;SDS011;7619;48.562;8.910;2023-03-30T01:32:09;6.60;;;1.60;;
15043;SDS011;7619;48.562;8.910;2023-03-30T01:37:35;3.63;;;1.60;;
15043;SDS011;7619;48.562;8.910;2023-03-30T01:40:05;7.60;;;2.10;;
15043;SDS011;7619;48.562;8.910;2023-03-30T01:42:36;4.53;;;1.77;;
15043;SDS011;7619;48.562;8.910;2023-03-30T01:45:07;5.70;;;2.20;;
15043;SDS011;7619;48.562;8.910;2023-03-30T01:47:36;2.60;;;1.50;;
15043;SDS011;7619;48.562;8.910;2023-03-30T01:50:05;5.80;;;1.83;;
15043;SDS011;7619;48.562;8.910;2023-03-30T01:52:36;4.90;;;2.07;;
15043;SDS011;7619;48.562;8.910;2023-03-30T01:55:08;10.43;;;1.90;;
15043;SDS011;7619;48.562;8.910;2023-03-30T01:57:38;8.97;;;2.10;;
15043;SDS011;7619;48.562;8.910;2023-03-30T02:00:08;6.40;;;1.43;;
15043;SDS011;7619;48.562;8.910;2023-03-30T02:02:39;6.97;;;2.20;;
15043;SDS011;7619;48.562;8.910;2023-03-30T02:05:08;6.63;;;2.10;;
15043;SDS011;7619;48.562;8.910;2023-03-30T02:07:37;4.03;;;1.77;;
15043;SDS011;7619;48.562;8.910;2023-03-30T02:10:07;3.13;;;1.70;;
15043;SDS011;7619;48.562;8.910;2023-03-30T02:12:37;4.90;;;1.83;;
15043;SDS011;7619;48.562;8.910;2023-03-30T02:15:07;4.23;;;1.70;;
15043;SDS011;7619;48.562;8.910;2023-03-30T02:17:36;6.17;;;2.13;;
15043;SDS011;7619;48.562;8.910;2023-03-30T02:20:06;14.30;;;2.17;;
15043;SDS011;7619;48.562;8.910;2023-03-30T02:22:36;6.00;;;2.10;;
15043;SDS011;7619;48.562;8.910;2023-03-30T02:25:04;3.70;;;1.60;;
15043;SDS011;7619;48.562;8.910;2023-03-30T02:27:33;6.57;;;1.90;;
15043;SDS011;7619;48.562;8.910;2023-03-30T02:30:04;6.73;;;2.10;;
15043;SDS011;7619;48.562;8.910;2023-03-30T02:32:35;4.50;;;1.97;;
15043;SDS011;7619;48.562;8.910;2023-03-30T02:35:07;5.13;;;1.53;;
15043;SDS011;7619;48.562;8.910;2023-03-30T02:37:39;8.57;;;2.17;;
15043;SDS011;7619;48.562;8.910;2023-03-30T02:40:12;8.63;;;2.27;;
15043;SDS011;7619;48.562;8.910;2023-03-30T02:45:32;5.47;;;2.03;;
15043;SDS011;7619;48.562;8.910;2023-03-30T02:48:13;8.37;;;2.23;;
15043;SDS011;7619;48.562;8.910;2023-03-30T02:50:43;3.67;;;1.80;;
15043;SDS011;7619;48.562;8.910;2023-03-30T02:53:13;9.27;;;2.03;;
15043;SDS011;7619;48.562;8.910;2023-03-30T02:55:43;5.37;;;1.80;;
15043;SDS011;7619;48.562;8.910;2023-03-30T02:58:13;7.80;;;2.07;;
15043;SDS011;7619;48.562;8.910;2023-03-30T03:00:43;6.40;;;1.90;;
15043;SDS011;7619;48.562;8.910;2023-03-30T03:03:14;9.37;;;3.13;;
15043;SDS011;7619;48.562;8.910;2023-03-30T03:05:43;6.00;;;1.97;;
15043;SDS011;7619;48.562;8.910;2023-03-30T03:08:14;7.53;;;2.50;;
15043;SDS011;7619;48.562;8.910;2023-03-30T03:10:44;8.03;;;2.37;;
15043;SDS011;7619;48.562;8.910;2023-03-30T03:13:12;6.27;;;1.80;;
15043;SDS011;7619;48.562;8.910;2023-03-30T03:15:42;7.43;;;2.17;;
15043;SDS011;7619;48.562;8.910;2023-03-30T03:18:11;6.50;;;1.90;;
15043;SDS011;7619;48.562;8.910;2023-03-30T03:20:39;4.57;;;1.93;;
15043;SDS011;7619;48.562;8.910;2023-03-30T03:23:07;8.33;;;1.90;;
15043;SDS011;7619;48.562;8.910;2023-03-30T03:25:35;7.37;;;2.27;;
15043;SDS011;7619;48.562;8.910;2023-03-30T03:28:04;5.10;;;1.90;;
15043;SDS011;7619;48.562;8.910;2023-03-30T03:30:32;3.63;;;1.93;;
15043;SDS011;7619;48.562;8.910;2023-03-30T03:33:00;5.13;;;2.00;;
15043;SDS011;7619;48.562;8.910;2023-03-30T03:35:28;5.40;;;2.00;;
15043;SDS011;7619;48.562;8.910;2023-03-30T03:37:57;6.67;;;2.33;;
15043;SDS011;7619;48.562;8.910;2023-03-30T03:40:25;16.33;;;2.77;;
15043;SDS011;7619;48.562;8.910;2023-03-30T03:42:53;6.20;;;1.90;;
15043;SDS011;7619;48.562;8.910;2023-03-30T03:45:21;8.17;;;1.73;;
15043;SDS011;7619;48.562;8.910;2023-03-30T03:47:49;6.00;;;2.87;;
15043;SDS011;7619;48.562;8.910;2023-03-30T03:50:17;5.27;;;2.00;;
15043;SDS011;7619;48.562;8.910;2023-03-30T03:52:45;11.20;;;2.70;;
15043;SDS011;7619;48.562;8.910;2023-03-30T03:55:15;4.57;;;2.57;;
15043;SDS011;7619;48.562;8.910;2023-03-30T03:57:43;7.13;;;2.30;;
15043;SDS011;7619;48.562;8.910;2023-03-30T04:00:11;6.27;;;2.53;;
15043;SDS011;7619;48.562;8.910;2023-03-30T04:02:42;3.00;;;1.97;;
15043;SDS011;7619;48.562;8.910;2023-03-30T04:05:11;8.53;;;2.07;;
15043;SDS011;7619;48.562;8.910;2023-03-30T04:07:39;9.73;;;2.20;;
15043;SDS011;7619;48.562;8.910;2023-03-30T04:10:07;5.10;;;2.40;;
15043;SDS011;7619;48.562;8.910;2023-03-30T04:12:35;9.53;;;2.73;;
15043;SDS011;7619;48.562;8.910;2023-03-30T04:15:05;6.23;;;2.83;;
15043;SDS011;7619;48.562;8.910;2023-03-30T04:17:33;4.30;;;1.77;;
15043;SDS011;7619;48.562;8.910;2023-03-30T04:20:03;4.87;;;2.33;;
15043;SDS011;7619;48.562;8.910;2023-03-30T04:22:31;7.00;;;2.20;;
15043;SDS011;7619;48.562;8.910;2023-03-30T04:25:02;6.17;;;1.70;;
15043;SDS011;7619;48.562;8.910;2023-03-30T04:27:32;8.87;;;2.13;;
15043;SDS011;7619;48.562;8.910;2023-03-30T04:30:00;6.20;;;2.23;;
15043;SDS011;7619;48.562;8.910;2023-03-30T04:32:29;7.00;;;1.93;;
15043;SDS011;7619;48.562;8.910;2023-03-30T04:34:59;3.67;;;2.30;;
15043;SDS011;7619;48.562;8.910;2023-03-30T04:37:26;11.37;;;2.33;;
15043;SDS011;7619;48.562;8.910;2023-03-30T04:39:56;10.43;;;3.47;;
15043;SDS011;7619;48.562;8.910;2023-03-30T04:42:24;8.10;;;3.00;;
15043;SDS011;7619;48.562;8.910;2023-03-30T04:44:56;9.30;;;3.07;;
15043;SDS011;7619;48.562;8.910;2023-03-30T04:47:24;8.00;;;2.80;;
15043;SDS011;7619;48.562;8.910;2023-03-30T04:49:52;8.40;;;2.40;;
15043;SDS011;7619;48.562;8.910;2023-03-30T04:52:20;6.50;;;3.53;;
15043;SDS011;7619;48.562;8.910;2023-03-30T04:54:48;12.97;;;4.00;;
15043;SDS011;7619;48.562;8.910;2023-03-30T04:57:16;10.40;;;4.30;;
15043;SDS011;7619;48.562;8.910;2023-03-30T04:59:44;11.10;;;3.67;;
15043;SDS011;7619;48.562;8.910;2023-03-30T05:02:12;10.63;;;2.50;;
15043;SDS011;7619;48.562;8.910;2023-03-30T05:04:42;8.60;;;2.90;;
15043;SDS011;7619;48.562;8.910;2023-03-30T05:07:10;5.60;;;2.60;;
15043;SDS011;7619;48.562;8.910;2023-03-30T05:09:38;7.57;;;2.90;;
15043;SDS011;7619;48.562;8.910;2023-03-30T05:12:06;12.00;;;3.27;;
15043;SDS011;7619;48.562;8.910;2023-03-30T05:14:34;8.73;;;3.57;;
15043;SDS011;7619;48.562;8.910;2023-03-30T05:17:02;9.90;;;3.10;;
15043;SDS011;7619;48.562;8.910;2023-03-30T05:19:30;14.83;;;3.30;;
15043;SDS011;7619;48.562;8.910;2023-03-30T05:21:59;9.87;;;3.03;;
15043;SDS011;7619;48.562;8.910;2023-03-30T05:24:27;11.93;;;3.10;;
15043;SDS011;7619;48.562;8.910;2023-03-30T05:26:55;6.87;;;3.10;;
15043;SDS011;7619;48.562;8.910;2023-03-30T05:29:23;6.50;;;2.93;;
15043;SDS011;7619;48.562;8.910;2023-03-30T05:31:51;7.90;;;3.33;;
15043;SDS011;7619;48.562;8.910;2023-03-30T05:34:19;7.83;;;3.53;;
15043;SDS011;7619;48.562;8.910;2023-03-30T05:36:47;10.70;;;3.93;;
15043;SDS011;7619;48.562;8.910;2023-03-30T05:39:15;8.80;;;3.87;;
15043;SDS011;7619;48.562;8.910;2023-03-30T05:41:43;12.77;;;3.87;;
15043;SDS011;7619;48.562;8.910;2023-03-30T05:44:12;8.33;;;3.63;;
15043;SDS011;7619;48.562;8.910;2023-03-30T05:46:40;7.57;;;3.80;;
15043;SDS011;7619;48.562;8.910;2023-03-30T05:49:08;10.73;;;3.93;;
15043;SDS011;7619;48.562;8.910;2023-03-30T05:51:36;8.10;;;3.23;;
15043;SDS011;7619;48.562;8.910;2023-03-30T05:54:04;7.73;;;3.90;;
15043;SDS011;7619;48.562;8.910;2023-03-30T05:56:32;8.27;;;3.13;;
15043;SDS011;7619;48.562;8.910;2023-03-30T06:01:39;8.70;;;4.17;;
15043;SDS011;7619;48.562;8.910;2023-03-30T06:04:07;11.10;;;4.80;;
15043;SDS011;7619;48.562;8.910;2023-03-30T06:06:35;15.07;;;5.30;;
15043;SDS011;7619;48.562;8.910;2023-03-30T06:09:03;11.20;;;4.57;;
15043;SDS011;7619;48.562;8.910;2023-03-30T06:11:31;8.27;;;4.00;;
15043;SDS011;7619;48.562;8.910;2023-03-30T06:14:00;12.63;;;4.20;;
15043;SDS011;7619;48.562;8.910;2023-03-30T06:16:28;7.77;;;3.50;;
15043;SDS011;7619;48.562;8.910;2023-03-30T06:18:57;7.03;;;3.50;;
15043;SDS011;7619;48.562;8.910;2023-03-30T06:21:25;8.07;;;2.93;;
15043;SDS011;7619;48.562;8.910;2023-03-30T06:23:53;7.43;;;3.33;;
15043;SDS011;7619;48.562;8.910;2023-03-30T06:26:21;9.57;;;3.83;;
15043;SDS011;7619;48.562;8.910;2023-03-30T06:28:50;10.83;;;3.20;;
15043;SDS011;7619;48.562;8.910;2023-03-30T06:31:18;7.37;;;3.07;;
15043;SDS011;7619;48.562;8.910;2023-03-30T06:33:46;9.00;;;3.67;;
15043;SDS011;7619;48.562;8.910;2023-03-30T06:36:16;8.97;;;3.43;;
15043;SDS011;7619;48.562;8.910;2023-03-30T06:38:44;8.90;;;3.30;;
15043;SDS011;7619;48.562;8.910;2023-03-30T06:41:12;9.90;;;3.10;;
15043;SDS011;7619;48.562;8.910;2023-03-30T06:43:41;7.40;;;3.13;;
15043;SDS011;7619;48.562;8.910;2023-03-30T06:46:09;12.77;;;3.30;;
15043;SDS011;7619;48.562;8.910;2023-03-30T06:48:38;8.23;;;2.70;;
15043;SDS011;7619;48.562;8.910;2023-03-30T06:51:06;12.60;;;2.77;;
15043;SDS011;7619;48.562;8.910;2023-03-30T06:53:34;6.67;;;2.20;;
15043;SDS011;7619;48.562;8.910;2023-03-30T06:56:03;7.90;;;2.67;;
15043;SDS011;7619;48.562;8.910;2023-03-30T06:58:31;9.07;;;2.77;;
15043;SDS011;7619;48.562;8.910;2023-03-30T07:01:07;13.07;;;2.57;;
15043;SDS011;7619;48.562;8.910;2023-03-30T07:03:36;8.33;;;2.80;;
15043;SDS011;7619;48.562;8.910;2023-03-30T07:06:05;9.13;;;2.43;;
15043;SDS011;7619;48.562;8.910;2023-03-30T07:08:34;7.60;;;2.63;;
15043;SDS011;7619;48.562;8.910;2023-03-30T07:11:03;12.53;;;2.60;;
15043;SDS011;7619;48.562;8.910;2023-03-30T07:13:32;7.37;;;2.00;;
15043;SDS011;7619;48.562;8.910;2023-03-30T07:16:00;9.23;;;2.50;;
15043;SDS011;7619;48.562;8.910;2023-03-30T07:18:28;8.63;;;2.80;;
15043;SDS011;7619;48.562;8.910;2023-03-30T07:20:57;5.00;;;2.13;;
15043;SDS011;7619;48.562;8.910;2023-03-30T07:23:25;8.13;;;2.17;;
15043;SDS011;7619;48.562;8.910;2023-03-30T07:25:53;6.23;;;2.30;;
15043;SDS011;7619;48.562;8.910;2023-03-30T07:28:21;8.10;;;2.20;;
15043;SDS011;7619;48.562;8.910;2023-03-30T07:30:49;6.33;;;1.50;;
15043;SDS011;7619;48.562;8.910;2023-03-30T07:33:18;3.90;;;1.67;;
15043;SDS011;7619;48.562;8.910;2023-03-30T07:35:47;10.67;;;2.40;;
15043;SDS011;7619;48.562;8.910;2023-03-30T07:38:16;6.63;;;2.07;;
15043;SDS011;7619;48.562;8.910;2023-03-30T07:40:44;10.17;;;2.43;;
15043;SDS011;7619;48.562;8.910;2023-03-30T07:43:12;4.63;;;1.87;;
15043;SDS011;7619;48.562;8.910;2023-03-30T07:45:41;10.27;;;3.23;;
15043;SDS011;7619;48.562;8.910;2023-03-30T07:48:09;6.70;;;2.10;;
15043;SDS011;7619;48.562;8.910;2023-03-30T07:50:37;6.47;;;2.47;;
15043;SDS011;7619;48.562;8.910;2023-03-30T07:53:05;7.37;;;2.20;;
15043;SDS011;7619;48.562;8.910;2023-03-30T07:55:33;6.07;;;2.37;;
15043;SDS011;7619;48.562;8.910;2023-03-30T07:58:01;6.17;;;2.57;;
15043;SDS011;7619;48.562;8.910;2023-03-30T08:00:30;7.10;;;2.23;;
15043;SDS011;7619;48.562;8.910;2023-03-30T08:02:58;4.60;;;1.97;;
15043;SDS011;7619;48.562;8.910;2023-03-30T08:05:27;7.23;;;2.20;;
15043;SDS011;7619;48.562;8.910;2023-03-30T08:07:55;5.63;;;1.70;;
15043;SDS011;7619;48.562;8.910;2023-03-30T08:10:25;5.17;;;2.17;;
15043;SDS011;7619;48.562;8.910;2023-03-30T08:12:55;59.57;;;7.70;;
15043;SDS011;7619;48.562;8.910;2023-03-30T08:15:23;55.50;;;5.70;;
15043;SDS011;7619;48.562;8.910;2023-03-30T08:17:57;44.63;;;6.07;;
15043;SDS011;7619;48.562;8.910;2023-03-30T08:20:28;13.40;;;3.23;;
15043;SDS011;7619;48.562;8.910;2023-03-30T08:22:57;7.00;;;2.27;;
15043;SDS011;7619;48.562;8.910;2023-03-30T08:25:25;6.53;;;1.90;;
15043;SDS011;7619;48.562;8.910;2023-03-30T08:27:54;7.57;;;1.90;;
15043;SDS011;7619;48.562;8.910;2023-03-30T08:30:22;7.27;;;2.40;;
15043;SDS011;7619;48.562;8.910;2023-03-30T08:32:51;6.13;;;1.90;;
15043;SDS011;7619;48.562;8.910;2023-03-30T08:35:19;3.70;;;1.50;;
15043;SDS011;7619;48.562;8.910;2023-03-30T08:37:49;5.60;;;1.90;;
15043;SDS011;7619;48.562;8.910;2023-03-30T08:40:17;7.27;;;1.90;;
15043;SDS011;7619;48.562;8.910;2023-03-30T08:42:49;5.03;;;1.60;;
15043;SDS011;7619;48.562;8.910;2023-03-30T08:45:18;12.23;;;1.97;;
15043;SDS011;7619;48.562;8.910;2023-03-30T08:47:47;5.73;;;1.40;;
15043;SDS011;7619;48.562;8.910;2023-03-30T08:50:17;3.27;;;1.87;;
15043;SDS011;7619;48.562;8.910;2023-03-30T08:52:46;2.30;;;1.23;;
15043;SDS011;7619;48.562;8.910;2023-03-30T08:55:17;4.03;;;1.60;;
15043;SDS011;7619;48.562;8.910;2023-03-30T08:57:46;3.57;;;1.77;;
15043;SDS011;7619;48.562;8.910;2023-03-30T09:00:16;2.87;;;2.07;;
15043;SDS011;7619;48.562;8.910;2023-03-30T09:02:47;5.67;;;1.63;;
15043;SDS011;7619;48.562;8.910;2023-03-30T09:05:18;6.63;;;1.60;;
15043;SDS011;7619;48.562;8.910;2023-03-30T09:07:50;2.13;;;1.10;;
15043;SDS011;7619;48.562;8.910;2023-03-30T09:10:19;3.90;;;1.27;;
15043;SDS011;7619;48.562;8.910;2023-03-30T09:12:47;5.27;;;2.03;;
15043;SDS011;7619;48.562;8.910;2023-03-30T09:15:17;4.23;;;1.57;;
15043;SDS011;7619;48.562;8.910;2023-03-30T09:17:47;3.63;;;1.30;;
15043;SDS011;7619;48.562;8.910;2023-03-30T09:20:19;2.00;;;1.40;;
15043;SDS011;7619;48.562;8.910;2023-03-30T09:22:47;6.03;;;1.47;;
15043;SDS011;7619;48.562;8.910;2023-03-30T09:25:17;5.70;;;2.00;;
15043;SDS011;7619;48.562;8.910;2023-03-30T09:27:50;4.63;;;1.57;;
15043;SDS011;7619;48.562;8.910;2023-03-30T09:30:21;2.47;;;1.10;;
15043;SDS011;7619;48.562;8.910;2023-03-30T09:32:58;6.30;;;1.93;;
15043;SDS011;7619;48.562;8.910;2023-03-30T09:35:29;2.17;;;1.70;;
15043;SDS011;7619;48.562;8.910;2023-03-30T09:37:58;2.90;;;1.67;;
15043;SDS011;7619;48.562;8.910;2023-03-30T09:40:30;2.73;;;1.80;;
15043;SDS011;7619;48.562;8.910;2023-03-30T09:42:59;4.97;;;1.90;;
15043;SDS011;7619;48.562;8.910;2023-03-30T09:45:27;3.50;;;1.87;;
15043;SDS011;7619;48.562;8.910;2023-03-30T09:47:57;2.53;;;1.67;;
15043;SDS011;7619;48.562;8.910;2023-03-30T09:50:26;4.30;;;1.77;;
15043;SDS011;7619;48.562;8.910;2023-03-30T09:52:56;5.20;;;1.57;;
15043;SDS011;7619;48.562;8.910;2023-03-30T09:55:26;10.37;;;1.90;;
15043;SDS011;7619;48.562;8.910;2023-03-30T09:58:08;3.17;;;1.40;;
15043;SDS011;7619;48.562;8.910;2023-03-30T10:00:27;3.33;;;1.70;;
15043;SDS011;7619;48.562;8.910;2023-03-30T10:02:57;8.20;;;2.10;;
15043;SDS011;7619;48.562;8.910;2023-03-30T10:05:26;1.53;;;1.33;;
15043;SDS011;7619;48.562;8.910;2023-03-30T10:07:56;4.07;;;1.53;;
15043;SDS011;7619;48.562;8.910;2023-03-30T10:10:28;4.63;;;1.83;;
15043;SDS011;7619;48.562;8.910;2023-03-30T10:13:01;3.80;;;1.97;;
15043;SDS011;7619;48.562;8.910;2023-03-30T10:15:30;3.70;;;2.57;;
15043;SDS011;7619;48.562;8.910;2023-03-30T10:18:00;4.97;;;1.80;;
15043;SDS011;7619;48.562;8.910;2023-03-30T10:20:32;3.43;;;1.47;;
15043;SDS011;7619;48.562;8.910;2023-03-30T10:23:00;3.40;;;1.70;;
15043;SDS011;7619;48.562;8.910;2023-03-30T10:25:31;4.23;;;2.17;;
15043;SDS011;7619;48.562;8.910;2023-03-30T10:27:59;7.30;;;2.07;;
15043;SDS011;7619;48.562;8.910;2023-03-30T10:30:30;7.00;;;2.10;;
15043;SDS011;7619;48.562;8.910;2023-03-30T10:33:00;8.83;;;2.60;;
15043;SDS011;7619;48.562;8.910;2023-03-30T10:35:31;3.43;;;2.00;;
15043;SDS011;7619;48.562;8.910;2023-03-30T10:38:00;5.77;;;2.17;;
15043;SDS011;7619;48.562;8.910;2023-03-30T10:40:31;8.97;;;3.10;;
15043;SDS011;7619;48.562;8.910;2023-03-30T10:43:00;9.77;;;2.63;;
15043;SDS011;7619;48.562;8.910;2023-03-30T10:45:31;5.47;;;2.10;;
15043;SDS011;7619;48.562;8.910;2023-03-30T10:48:04;2.93;;;2.30;;
15043;SDS011;7619;48.562;8.910;2023-03-30T10:50:34;4.13;;;1.93;;
15043;SDS011;7619;48.562;8.910;2023-03-30T10:53:06;6.00;;;2.13;;
15043;SDS011;7619;48.562;8.910;2023-03-30T10:55:36;3.80;;;2.37;;
15043;SDS011;7619;48.562;8.910;2023-03-30T10:58:10;5.70;;;2.17;;
15043;SDS011;7619;48.562;8.910;2023-03-30T11:00:41;6.70;;;2.37;;
15043;SDS011;7619;48.562;8.910;2023-03-30T11:03:11;3.93;;;2.00;;
15043;SDS011;7619;48.562;8.910;2023-03-30T11:05:41;7.20;;;2.73;;
15043;SDS011;7619;48.562;8.910;2023-03-30T11:08:11;6.00;;;3.30;;
15043;SDS011;7619;48.562;8.910;2023-03-30T11:10:39;5.60;;;3.23;;
15043;SDS011;7619;48.562;8.910;2023-03-30T11:13:11;3.07;;;2.23;;
15043;SDS011;7619;48.562;8.910;2023-03-30T11:15:40;5.13;;;2.17;;
15043;SDS011;7619;48.562;8.910;2023-03-30T11:18:12;9.70;;;2.70;;
15043;SDS011;7619;48.562;8.910;2023-03-30T11:20:41;10.50;;;3.50;;
15043;SDS011;7619;48.562;8.910;2023-03-30T11:23:12;8.17;;;3.23;;
15043;SDS011;7619;48.562;8.910;2023-03-30T11:25:49;4.27;;;2.70;;
15043;SDS011;7619;48.562;8.910;2023-03-30T11:28:12;4.77;;;2.83;;
15043;SDS011;7619;48.562;8.910;2023-03-30T11:30:41;6.77;;;3.10;;
15043;SDS011;7619;48.562;8.910;2023-03-30T11:33:14;4.60;;;2.37;;
15043;SDS011;7619;48.562;8.910;2023-03-30T11:35:41;6.53;;;2.63;;
15043;SDS011;7619;48.562;8.910;2023-03-30T11:38:12;5.10;;;2.40;;
15043;SDS011;7619;48.562;8.910;2023-03-30T11:40:40;10.43;;;2.97;;
15043;SDS011;7619;48.562;8.910;2023-03-30T11:43:10;5.00;;;3.00;;
15043;SDS011;7619;48.562;8.910;2023-03-30T11:45:41;6.57;;;3.00;;
15043;SDS011;7619;48.562;8.910;2023-03-30T11:48:14;7.30;;;2.90;;
15043;SDS011;7619;48.562;8.910;2023-03-30T11:50:48;7.47;;;2.70;;
15043;SDS011;7619;48.562;8.910;2023-03-30T11:53:19;5.93;;;2.50;;
15043;SDS011;7619;48.562;8.910;2023-03-30T11:55:50;5.87;;;2.50;;
15043;SDS011;7619;48.562;8.910;2023-03-30T11:58:22;5.90;;;2.67;;
15043;SDS011;7619;48.562;8.910;2023-03-30T12:00:52;5.93;;;2.43;;
15043;SDS011;7619;48.562;8.910;2023-03-30T12:03:31;4.03;;;2.13;;
15043;SDS011;7619;48.562;8.910;2023-03-30T12:06:03;4.87;;;2.80;;
15043;SDS011;7619;48.562;8.910;2023-03-30T12:08:35;3.70;;;2.03;;
15043;SDS011;7619;48.562;8.910;2023-03-30T12:11:04;5.70;;;2.10;;
15043;SDS011;7619;48.562;8.910;2023-03-30T12:13:33;4.27;;;2.60;;
15043;SDS011;7619;48.562;8.910;2023-03-30T12:16:02;3.93;;;2.47;;
15043;SDS011;7619;48.562;8.910;2023-03-30T12:18:35;7.63;;;2.63;;
15043;SDS011;7619;48.562;8.910;2023-03-30T12:21:08;9.77;;;2.77;;
15043;SDS011;7619;48.562;8.910;2023-03-30T12:23:35;4.10;;;2.50;;
15043;SDS011;7619;48.562;8.910;2023-03-30T12:26:08;7.13;;;2.27;;
15043;SDS011;7619;48.562;8.910;2023-03-30T12:28:43;7.80;;;2.77;;
15043;SDS011;7619;48.562;8.910;2023-03-30T12:31:11;2.17;;;1.73;;
15043;SDS011;7619;48.562;8.910;2023-03-30T12:33:46;3.03;;;2.00;;
15043;SDS011;7619;48.562;8.910;2023-03-30T12:36:22;5.70;;;2.50;;
15043;SDS011;7619;48.562;8.910;2023-03-30T12:38:52;5.03;;;2.60;;
15043;SDS011;7619;48.562;8.910;2023-03-30T12:41:24;3.93;;;2.47;;
15043;SDS011;7619;48.562;8.910;2023-03-30T12:44:03;2.00;;;1.77;;
15043;SDS011;7619;48.562;8.910;2023-03-30T12:46:35;4.13;;;2.07;;
15043;SDS011;7619;48.562;8.910;2023-03-30T12:49:07;4.30;;;1.83;;
15043;SDS011;7619;48.562;8.910;2023-03-30T12:51:42;4.80;;;2.10;;
15043;SDS011;7619;48.562;8.910;2023-03-30T12:54:14;2.90;;;2.20;;
15043;SDS011;7619;48.562;8.910;2023-03-30T12:56:45;6.23;;;2.20;;
15043;SDS011;7619;48.562;8.910;2023-03-30T13:02:05;4.53;;;1.60;;
15043;SDS011;7619;48.562;8.910;2023-03-30T13:04:34;6.00;;;2.20;;
15043;SDS011;7619;48.562;8.910;2023-03-30T13:07:04;5.17;;;2.17;;
15043;SDS011;7619;48.562;8.910;2023-03-30T13:09:35;3.53;;;2.03;;
15043;SDS011;7619;48.562;8.910;2023-03-30T13:12:23;2.80;;;1.60;;
15043;SDS011;7619;48.562;8.910;2023-03-30T13:14:55;4.07;;;2.00;;
15043;SDS011;7619;48.562;8.910;2023-03-30T13:17:24;2.57;;;2.03;;
15043;SDS011;7619;48.562;8.910;2023-03-30T13:20:13;5.37;;;1.57;;
15043;SDS011;7619;48.562;8.910;2023-03-30T13:22:52;4.87;;;2.30;;
15043;SDS011;7619;48.562;8.910;2023-03-30T13:25:35;2.23;;;1.80;;
15043;SDS011;7619;48.562;8.910;2023-03-30T13:28:07;1.53;;;1.13;;
15043;SDS011;7619;48.562;8.910;2023-03-30T13:30:30;2.17;;;1.33;;
15043;SDS011;7619;48.562;8.910;2023-03-30T13:33:02;3.43;;;2.30;;
15043;SDS011;7619;48.562;8.910;2023-03-30T13:35:35;4.67;;;1.43;;
15043;SDS011;7619;48.562;8.910;2023-03-30T13:38:10;4.20;;;1.70;;
15043;SDS011;7619;48.562;8.910;2023-03-30T13:40:37;1.97;;;1.33;;
15043;SDS011;7619;48.562;8.910;2023-03-30T13:43:07;1.90;;;1.30;;
15043;SDS011;7619;48.562;8.910;2023-03-30T13:45:37;3.60;;;1.40;;
15043;SDS011;7619;48.562;8.910;2023-03-30T13:48:13;1.50;;;1.20;;
15043;SDS011;7619;48.562;8.910;2023-03-30T13:50:44;2.57;;;1.10;;
15043;SDS011;7619;48.562;8.910;2023-03-30T13:53:13;4.60;;;1.83;;
15043;SDS011;7619;48.562;8.910;2023-03-30T13:55:43;5.63;;;1.50;;
15043;SDS011;7619;48.562;8.910;2023-03-30T13:58:13;2.77;;;1.50;;
15043;SDS011;7619;48.562;8.910;2023-03-30T14:00:43;1.33;;;0.90;;
15043;SDS011;7619;48.562;8.910;2023-03-30T14:03:30;2.00;;;1.17;;
15043;SDS011;7619;48.562;8.910;2023-03-30T14:05:59;3.20;;;1.07;;
15043;SDS011;7619;48.562;8.910;2023-03-30T14:08:30;1.33;;;1.20;;
15043;SDS011;7619;48.562;8.910;2023-03-30T14:11:02;1.40;;;1.30;;
15043;SDS011;7619;48.562;8.910;2023-03-30T14:13:32;3.47;;;1.23;;
15043;SDS011;7619;48.562;8.910;2023-03-30T14:16:00;1.67;;;1.13;;
15043;SDS011;7619;48.562;8.910;2023-03-30T14:18:29;6.17;;;1.50;;
15043;SDS011;7619;48.562;8.910;2023-03-30T14:20:58;5.20;;;1.40;;
15043;SDS011;7619;48.562;8.910;2023-03-30T14:23:30;5.80;;;1.73;;
15043;SDS011;7619;48.562;8.910;2023-03-30T14:25:58;5.27;;;1.33;;
15043;SDS011;7619;48.562;8.910;2023-03-30T14:28:27;3.27;;;1.10;;
15043;SDS011;7619;48.562;8.910;2023-03-30T14:30:56;3.53;;;1.30;;
15043;SDS011;7619;48.562;8.910;2023-03-30T14:33:24;2.63;;;1.33;;
15043;SDS011;7619;48.562;8.910;2023-03-30T14:35:53;4.27;;;2.17;;
15043;SDS011;7619;48.562;8.910;2023-03-30T14:38:23;2.17;;;1.37;;
15043;SDS011;7619;48.562;8.910;2023-03-30T14:40:52;3.23;;;1.70;;
15043;SDS011;7619;48.562;8.910;2023-03-30T14:43:21;1.83;;;1.00;;
15043;SDS011;7619;48.562;8.910;2023-03-30T14:45:50;2.57;;;1.30;;
15043;SDS011;7619;48.562;8.910;2023-03-30T14:48:21;2.93;;;1.57;;
15043;SDS011;7619;48.562;8.910;2023-03-30T14:50:49;4.30;;;0.90;;
15043;SDS011;7619;48.562;8.910;2023-03-30T14:53:19;1.40;;;1.10;;
15043;SDS011;7619;48.562;8.910;2023-03-30T14:55:48;4.07;;;1.40;;
15043;SDS011;7619;48.562;8.910;2023-03-30T14:58:16;1.97;;;1.10;;
15043;SDS011;7619;48.562;8.910;2023-03-30T15:00:44;2.77;;;1.40;;
15043;SDS011;7619;48.562;8.910;2023-03-30T15:03:13;1.43;;;0.97;;
15043;SDS011;7619;48.562;8.910;2023-03-30T15:05:41;3.70;;;1.10;;
15043;SDS011;7619;48.562;8.910;2023-03-30T15:08:13;5.77;;;1.63;;
15043;SDS011;7619;48.562;8.910;2023-03-30T15:10:44;1.50;;;0.93;;
15043;SDS011;7619;48.562;8.910;2023-03-30T15:13:12;1.07;;;0.70;;
15043;SDS011;7619;48.562;8.910;2023-03-30T15:15:42;3.17;;;1.00;;
15043;SDS011;7619;48.562;8.910;2023-03-30T15:18:10;4.23;;;1.20;;
15043;SDS011;7619;48.562;8.910;2023-03-30T15:20:40;3.70;;;0.80;;
15043;SDS011;7619;48.562;8.910;2023-03-30T15:23:09;0.80;;;0.70;;
15043;SDS011;7619;48.562;8.910;2023-03-30T15:25:38;1.90;;;0.80;;
15043;SDS011;7619;48.562;8.910;2023-03-30T15:28:07;2.50;;;0.70;;
15043;SDS011;7619;48.562;8.910;2023-03-30T15:30:37;2.07;;;0.80;;
15043;SDS011;7619;48.562;8.910;2023-03-30T15:33:05;2.60;;;0.90;;